createdAt,value
2017-06-08T00:01:28.656Z,54.30
2017-06-08T00:03:58.729Z,54.40
2017-06-08T00:06:28.732Z,54.30
2017-06-08T00:08:59.191Z,54.40
2017-06-08T00:11:29.581Z,54.30
2017-06-08T00:14:00.236Z,54.40
2017-06-08T00:16:32.298Z,54.70
2017-06-08T00:19:02.868Z,55.00
2017-06-08T00:21:33.956Z,55.10
2017-06-08T00:24:04.327Z,55.50
2017-06-08T00:26:35.516Z,55.40
2017-06-08T00:29:05.604Z,55.60
2017-06-08T00:31:35.570Z,55.80
2017-06-08T00:34:05.620Z,55.90
2017-06-08T00:36:36.022Z,55.90
2017-06-08T00:39:06.277Z,56.10
2017-06-08T00:41:36.246Z,56.00
2017-06-08T00:44:06.224Z,55.90
2017-06-08T00:46:36.480Z,55.80
2017-06-08T00:49:06.531Z,56.00
2017-06-08T00:51:36.583Z,56.10
2017-06-08T00:54:07.684Z,56.20
2017-06-08T00:56:39.036Z,57.00
2017-06-08T00:59:10.172Z,56.50
2017-06-08T01:01:40.455Z,56.30
2017-06-08T01:04:10.603Z,56.10
2017-06-08T01:06:40.665Z,56.10
2017-06-08T01:09:10.691Z,55.90
2017-06-08T01:11:40.959Z,56.00
2017-06-08T01:14:11.116Z,56.30
2017-06-08T01:16:42.320Z,56.10
2017-06-08T01:19:13.213Z,56.30
2017-06-08T01:21:43.430Z,56.00
2017-06-08T01:24:14.685Z,56.40
2017-06-08T01:26:45.412Z,56.50
2017-06-08T01:29:15.483Z,56.50
2017-06-08T01:31:45.587Z,56.50
2017-06-08T01:34:16.659Z,56.80
2017-06-08T01:36:47.123Z,56.70
2017-06-08T01:39:17.916Z,56.40
2017-06-08T01:41:48.616Z,56.50
2017-06-08T01:44:18.702Z,56.30
2017-06-08T01:46:48.879Z,56.30
2017-06-08T01:49:19.058Z,56.50
2017-06-08T01:51:49.865Z,56.60
2017-06-08T01:54:19.971Z,56.80
2017-06-08T01:56:50.049Z,56.80
2017-06-08T01:59:20.851Z,56.60
2017-06-08T02:01:51.057Z,56.50
2017-06-08T02:04:21.165Z,56.70
2017-06-08T02:06:51.264Z,56.50
2017-06-08T02:09:21.531Z,56.60
2017-06-08T02:11:51.512Z,56.70
2017-06-08T02:14:21.599Z,56.50
2017-06-08T02:16:51.675Z,56.70
2017-06-08T02:19:22.560Z,56.50
2017-06-08T02:21:52.864Z,56.70
2017-06-08T02:24:23.080Z,56.80
2017-06-08T02:26:53.275Z,57.00
2017-06-08T02:29:24.200Z,57.10
2017-06-08T02:31:54.608Z,57.20
2017-06-08T02:34:24.772Z,57.30
2017-06-08T02:36:56.197Z,57.40
2017-06-08T02:39:26.259Z,57.60
2017-06-08T02:41:56.620Z,57.60
2017-06-08T02:44:27.935Z,57.80
2017-06-08T02:46:58.232Z,57.70
2017-06-08T02:49:28.283Z,57.70
2017-06-08T02:51:58.680Z,58.00
2017-06-08T02:54:28.733Z,58.00
2017-06-08T02:57:00.020Z,58.30
2017-06-08T02:59:30.084Z,58.10
2017-06-08T03:02:00.249Z,58.30
2017-06-08T03:04:30.387Z,58.50
2017-06-08T03:07:00.686Z,58.90
2017-06-08T03:09:30.787Z,59.00
2017-06-08T03:12:00.935Z,59.30
2017-06-08T03:14:30.936Z,59.40
2017-06-08T03:17:01.031Z,59.50
2017-06-08T03:19:31.236Z,59.60
2017-06-08T03:22:01.720Z,59.70
2017-06-08T03:24:32.661Z,59.60
2017-06-08T03:27:03.106Z,60.00
2017-06-08T03:29:41.837Z,59.70
2017-06-08T03:32:19.494Z,60.00
2017-06-08T03:34:50.143Z,60.10
2017-06-08T03:37:20.604Z,60.30
2017-06-08T03:39:50.664Z,60.20
2017-06-08T03:42:21.323Z,60.00
2017-06-08T03:44:52.164Z,60.40
2017-06-08T03:47:22.183Z,60.20
2017-06-08T03:49:52.284Z,60.50
2017-06-08T03:52:23.352Z,60.90
2017-06-08T03:54:53.337Z,61.80
2017-06-08T03:57:23.324Z,62.00
2017-06-08T03:59:53.467Z,63.00
2017-06-08T04:02:23.592Z,63.00
2017-06-08T04:04:53.785Z,64.10
2017-06-08T04:07:30.474Z,64.60
2017-06-08T04:10:00.995Z,64.50
2017-06-08T04:12:31.384Z,64.60
2017-06-08T04:15:02.051Z,66.50
2017-06-08T04:17:32.482Z,67.20
2017-06-08T04:20:06.212Z,67.50
2017-06-08T04:22:36.467Z,67.80
2017-06-08T04:25:07.971Z,67.90
2017-06-08T04:27:38.305Z,68.60
2017-06-08T04:30:08.478Z,68.70
2017-06-08T04:32:38.485Z,68.70
2017-06-08T04:35:08.983Z,68.60
2017-06-08T04:37:38.963Z,69.50
2017-06-08T04:40:09.055Z,69.60
2017-06-08T04:42:39.223Z,69.60
2017-06-08T04:45:09.228Z,69.20
2017-06-08T04:47:39.356Z,69.30
2017-06-08T04:50:09.855Z,70.70
2017-06-08T04:52:39.975Z,71.40
2017-06-08T04:55:14.946Z,70.10
2017-06-08T04:57:45.660Z,71.00
2017-06-08T05:00:19.227Z,70.90
2017-06-08T05:02:49.581Z,70.20
2017-06-08T05:05:19.656Z,69.70
2017-06-08T05:07:51.743Z,70.20
2017-06-08T05:10:22.488Z,69.80
2017-06-08T05:12:53.723Z,70.20
2017-06-08T05:15:25.001Z,69.70
2017-06-08T05:17:55.385Z,69.70
2017-06-08T05:20:25.674Z,69.80
2017-06-08T05:22:55.921Z,69.70
2017-06-08T05:25:26.188Z,69.00
2017-06-08T05:27:56.288Z,68.60
2017-06-08T05:30:36.531Z,69.10
2017-06-08T05:33:07.952Z,69.10
2017-06-08T05:35:38.077Z,68.60
2017-06-08T05:38:08.272Z,68.50
2017-06-08T05:40:38.442Z,68.60
2017-06-08T05:43:08.590Z,68.40
2017-06-08T05:45:39.270Z,67.40
2017-06-08T05:48:12.568Z,67.10
2017-06-08T05:50:42.637Z,66.50
2017-06-08T05:53:12.931Z,67.40
2017-06-08T05:55:46.672Z,67.40
2017-06-08T05:58:17.467Z,67.10
2017-06-08T06:00:47.463Z,67.20
2017-06-08T06:03:17.805Z,65.30
2017-06-08T06:05:47.949Z,65.40
2017-06-08T06:08:18.068Z,65.40
2017-06-08T06:10:48.753Z,65.30
2017-06-08T06:13:19.157Z,65.30
2017-06-08T06:15:53.157Z,65.30
2017-06-08T06:18:24.439Z,65.10
2017-06-08T06:20:54.603Z,64.40
2017-06-08T06:23:25.049Z,64.10
2017-06-08T06:25:56.744Z,64.80
2017-06-08T06:28:27.706Z,63.50
2017-06-08T06:30:58.027Z,63.00
2017-06-08T06:33:35.636Z,61.40
2017-06-08T06:36:05.736Z,60.80
2017-06-08T06:38:37.019Z,60.00
2017-06-08T06:41:07.061Z,59.00
2017-06-08T06:43:37.131Z,58.60
2017-06-08T06:46:07.290Z,58.70
2017-06-08T06:48:38.395Z,58.40
2017-06-08T06:51:08.464Z,57.60
2017-06-08T06:53:39.182Z,58.70
2017-06-08T06:56:09.141Z,56.90
2017-06-08T06:58:39.211Z,57.00
2017-06-08T07:01:09.261Z,56.90
2017-06-08T07:03:39.288Z,57.00
2017-06-08T07:06:10.002Z,56.90
2017-06-08T07:08:40.331Z,57.10
2017-06-08T07:11:11.444Z,56.30
2017-06-08T07:13:41.781Z,55.50
2017-06-08T07:16:11.847Z,55.00
2017-06-08T07:18:41.834Z,54.50
2017-06-08T07:21:11.955Z,55.20
2017-06-08T07:23:41.965Z,54.90
2017-06-08T07:26:12.183Z,55.20
2017-06-08T07:28:42.292Z,54.70
2017-06-08T07:31:12.346Z,53.90
2017-06-08T07:33:42.383Z,53.10
2017-06-08T07:36:12.440Z,53.00
2017-06-08T07:38:42.471Z,51.40
2017-06-08T07:41:12.698Z,50.80
2017-06-08T07:43:43.181Z,50.80
2017-06-08T07:46:13.268Z,49.60
2017-06-08T07:48:44.331Z,48.30
2017-06-08T07:51:14.851Z,48.50
2017-06-08T07:53:45.223Z,47.00
2017-06-08T07:56:15.896Z,47.50
2017-06-08T07:58:46.425Z,48.50
2017-06-08T08:01:24.989Z,48.00
2017-06-08T08:03:55.430Z,47.20
2017-06-08T08:06:25.505Z,47.80
2017-06-08T08:08:55.634Z,47.30
2017-06-08T08:11:25.696Z,46.80
2017-06-08T08:13:55.907Z,47.70
2017-06-08T08:16:29.079Z,47.60
2017-06-08T08:18:59.549Z,47.20
2017-06-08T08:21:29.732Z,45.90
2017-06-08T08:24:00.653Z,45.90
2017-06-08T08:26:30.739Z,45.70
2017-06-08T08:29:01.809Z,43.90
2017-06-08T08:33:49.377Z,44.20
2017-06-08T08:36:19.695Z,44.30
2017-06-08T08:38:49.983Z,44.50
2017-06-08T08:41:20.376Z,42.80
2017-06-08T08:43:50.459Z,44.50
2017-06-08T08:46:20.603Z,44.40
2017-06-08T08:48:52.505Z,44.20
2017-06-08T08:51:23.005Z,44.50
2017-06-08T08:53:53.147Z,44.20
2017-06-08T08:56:23.293Z,43.50
2017-06-08T08:58:53.324Z,42.20
2017-06-08T09:01:23.405Z,42.60
2017-06-08T09:03:53.508Z,42.50
2017-06-08T09:06:23.455Z,43.20
2017-06-08T09:08:53.605Z,43.00
2017-06-08T09:11:23.639Z,43.70
2017-06-08T09:13:53.641Z,42.80
2017-06-08T09:16:23.951Z,42.20
2017-06-08T09:18:54.038Z,43.00
2017-06-08T09:21:24.322Z,42.00
2017-06-08T09:23:54.931Z,41.80
2017-06-08T09:26:25.283Z,41.70
2017-06-08T09:28:55.704Z,42.00
2017-06-08T09:31:26.503Z,41.80
2017-06-08T09:33:56.565Z,41.90
2017-06-08T09:36:26.812Z,42.00
2017-06-08T09:38:56.796Z,41.90
2017-06-08T09:41:27.236Z,41.90
2017-06-08T09:43:57.773Z,41.00
2017-06-08T09:46:27.859Z,42.00
2017-06-08T09:48:58.008Z,42.10
2017-06-08T09:51:28.108Z,41.20
2017-06-08T09:53:59.385Z,40.60
2017-06-08T09:56:30.057Z,41.00
2017-06-08T09:59:00.654Z,41.40
2017-06-08T10:01:31.045Z,40.20
2017-06-08T10:04:02.143Z,40.60
2017-06-08T10:06:32.450Z,40.50
2017-06-08T10:09:17.955Z,40.50
2017-06-08T10:11:49.731Z,40.50
2017-06-08T10:14:19.921Z,39.80
2017-06-08T10:16:50.407Z,38.30
2017-06-08T10:19:21.683Z,40.10
2017-06-08T10:21:52.113Z,39.10
2017-06-08T10:24:22.145Z,38.70
2017-06-08T10:31:36.510Z,38.90
2017-06-08T10:37:02.826Z,40.70
2017-06-08T10:39:33.085Z,40.70
2017-06-08T10:42:04.326Z,40.30
2017-06-08T10:44:34.597Z,39.70
2017-06-08T10:47:04.744Z,37.50
2017-06-08T10:49:34.872Z,37.20
2017-06-08T10:52:05.027Z,37.20
2017-06-08T10:54:35.421Z,37.70
2017-06-08T10:57:05.460Z,37.90
2017-06-08T10:59:35.577Z,37.70
2017-06-08T11:02:05.799Z,37.90
2017-06-08T11:04:36.029Z,37.90
2017-06-08T11:07:07.552Z,38.80
2017-06-08T11:09:39.272Z,38.30
2017-06-08T11:12:09.591Z,39.20
2017-06-08T11:14:39.961Z,37.50
2017-06-08T11:17:12.805Z,37.20
2017-06-08T11:19:43.276Z,38.30
2017-06-08T11:22:13.747Z,37.50
2017-06-08T11:24:45.104Z,37.90
2017-06-08T11:27:17.279Z,37.90
2017-06-08T11:29:47.822Z,37.40
2017-06-08T11:32:18.037Z,37.20
2017-06-08T11:34:48.234Z,38.00
2017-06-08T11:37:18.633Z,36.60
2017-06-08T11:39:52.526Z,36.60
2017-06-08T11:42:22.636Z,37.70
2017-06-08T11:45:01.685Z,36.00
2017-06-08T11:47:36.531Z,34.70
2017-06-08T11:50:07.366Z,35.40
2017-06-08T11:52:37.625Z,35.20
2017-06-08T11:55:07.904Z,36.40
2017-06-08T11:57:38.243Z,36.70
2017-06-08T12:00:09.579Z,37.70
2017-06-08T12:02:41.055Z,36.70
2017-06-08T12:05:12.376Z,36.20
2017-06-08T12:07:43.010Z,35.70
2017-06-08T12:10:15.365Z,37.50
2017-06-08T12:12:47.097Z,37.00
2017-06-08T12:15:17.707Z,36.90
2017-06-08T12:17:47.998Z,36.70
2017-06-08T12:20:19.145Z,36.50
2017-06-08T12:22:50.407Z,36.20
2017-06-08T12:25:22.988Z,35.80
2017-06-08T12:27:54.298Z,36.40
2017-06-08T12:30:24.830Z,35.00
2017-06-08T12:33:00.681Z,34.40
2017-06-08T12:35:32.111Z,33.40
2017-06-08T12:38:04.327Z,34.60
2017-06-08T12:40:37.437Z,33.90
2017-06-08T12:43:07.629Z,33.80
2017-06-08T12:45:39.011Z,34.60
2017-06-08T12:48:09.272Z,35.40
2017-06-08T12:50:40.502Z,35.30
2017-06-08T12:53:10.735Z,34.80
2017-06-08T12:55:40.977Z,34.30
2017-06-08T12:58:11.112Z,34.10
2017-06-08T13:00:48.522Z,34.80
2017-06-08T13:03:18.969Z,35.70
2017-06-08T13:05:56.972Z,34.20
2017-06-08T13:08:27.583Z,34.50
2017-06-08T13:10:57.849Z,34.30
2017-06-08T13:13:28.562Z,35.50
2017-06-08T13:16:00.163Z,35.50
2017-06-08T13:18:31.944Z,35.20
2017-06-08T13:21:04.252Z,35.00
2017-06-08T13:23:34.501Z,35.40
2017-06-08T13:26:04.740Z,36.90
2017-06-08T13:28:34.992Z,36.50
2017-06-08T13:31:06.872Z,35.30
2017-06-08T13:33:37.332Z,35.30
2017-06-08T13:36:08.378Z,36.20
2017-06-08T13:38:41.320Z,36.40
2017-06-08T13:41:12.626Z,36.60
2017-06-08T13:43:45.469Z,35.40
2017-06-08T13:46:16.924Z,35.50
2017-06-08T13:48:51.939Z,35.20
2017-06-08T13:51:22.908Z,34.50
2017-06-08T13:53:54.403Z,35.40
2017-06-08T13:56:25.993Z,35.40
2017-06-08T13:58:57.785Z,36.60
2017-06-08T14:01:29.561Z,37.80
2017-06-08T14:04:00.378Z,35.60
2017-06-08T14:06:30.954Z,35.60
2017-06-08T14:09:03.361Z,35.20
2017-06-08T14:11:36.018Z,35.30
2017-06-08T14:14:07.397Z,36.40
2017-06-08T14:16:39.596Z,37.60
2017-06-08T14:19:09.857Z,37.20
2017-06-08T14:21:40.073Z,36.80
2017-06-08T14:24:10.755Z,35.50
2017-06-08T14:26:40.929Z,35.60
2017-06-08T14:29:10.970Z,36.30
2017-06-08T14:31:42.385Z,35.30
2017-06-08T14:34:13.313Z,36.40
2017-06-08T14:36:43.731Z,36.20
2017-06-08T14:39:14.797Z,38.20
2017-06-08T14:41:50.023Z,39.10
2017-06-08T14:44:20.838Z,37.40
2017-06-08T14:46:51.841Z,37.10
2017-06-08T14:49:22.471Z,35.60
2017-06-08T14:51:53.435Z,35.70
2017-06-08T14:54:23.412Z,35.90
2017-06-08T14:56:54.378Z,34.20
2017-06-08T14:59:25.100Z,33.30
2017-06-08T15:01:57.486Z,31.30
2017-06-08T15:04:27.574Z,31.00
2017-06-08T15:06:58.189Z,31.70
2017-06-08T15:09:28.356Z,33.40
2017-06-08T15:26:29.611Z,34.30
2017-06-08T15:29:03.083Z,34.30
2017-06-08T15:31:35.467Z,36.50
2017-06-08T15:34:06.956Z,35.60
2017-06-08T15:36:38.443Z,35.80
2017-06-08T15:39:09.449Z,35.20
2017-06-08T15:41:40.761Z,34.70
2017-06-08T15:44:11.911Z,34.20
2017-06-08T15:46:43.357Z,34.60
2017-06-08T15:49:15.164Z,33.70
2017-06-08T15:51:47.609Z,33.00
2017-06-08T15:54:18.758Z,32.90
2017-06-08T15:56:51.577Z,33.30
2017-06-08T15:59:23.301Z,34.90
2017-06-08T16:01:54.582Z,35.70
2017-06-08T16:04:25.808Z,36.10
2017-06-08T16:06:57.680Z,35.80
2017-06-08T16:09:28.952Z,36.20
2017-06-08T16:12:01.301Z,37.20
2017-06-08T16:14:32.870Z,37.30
2017-06-08T16:17:04.010Z,37.40
2017-06-08T16:19:36.123Z,37.00
2017-06-08T16:22:07.523Z,36.50
2017-06-08T16:24:39.304Z,36.00
2017-06-08T16:27:09.846Z,35.90
2017-06-08T16:29:39.567Z,36.80
2017-06-08T16:32:09.261Z,35.90
2017-06-08T16:34:39.043Z,35.20
2017-06-08T16:37:09.746Z,34.10
2017-06-08T16:39:40.034Z,33.80
2017-06-08T16:42:09.744Z,33.20
2017-06-08T16:44:39.458Z,33.70
2017-06-08T16:47:09.210Z,33.70
2017-06-08T16:49:39.057Z,33.50
2017-06-08T16:52:08.774Z,34.00
2017-06-08T16:54:38.476Z,34.30
2017-06-08T16:57:08.181Z,35.70
2017-06-08T16:59:37.870Z,35.60
2017-06-08T17:02:07.570Z,35.60
2017-06-08T17:04:37.341Z,35.70
2017-06-08T17:07:07.180Z,35.70
2017-06-08T17:09:37.903Z,35.50
2017-06-08T17:12:07.719Z,37.00
2017-06-08T17:14:52.713Z,37.30
2017-06-08T17:17:32.638Z,37.40
2017-06-08T17:20:04.483Z,36.40
2017-06-08T17:22:34.650Z,35.70
2017-06-08T17:25:05.766Z,34.30
2017-06-08T17:27:36.661Z,33.40
2017-06-08T17:30:07.367Z,35.10
2017-06-08T17:32:42.419Z,36.20
2017-06-08T17:35:13.693Z,37.00
2017-06-08T17:37:44.666Z,37.80
2017-06-08T17:40:15.148Z,38.10
2017-06-08T17:42:45.594Z,38.50
2017-06-08T17:45:16.376Z,38.90
2017-06-08T17:47:46.605Z,39.10
2017-06-08T17:50:16.849Z,39.70
2017-06-08T17:52:47.152Z,39.40
2017-06-08T17:55:17.549Z,39.70
2017-06-08T17:57:47.954Z,39.40
2017-06-08T18:00:18.681Z,39.60
2017-06-08T18:02:50.754Z,39.40
2017-06-08T18:05:20.582Z,39.90
2017-06-08T18:07:50.574Z,39.50
2017-06-08T18:10:21.455Z,40.00
2017-06-08T18:12:51.797Z,40.00
2017-06-08T18:15:21.575Z,40.40
2017-06-08T18:17:51.268Z,40.30
2017-06-08T18:20:21.374Z,40.30
2017-06-08T18:22:51.283Z,40.50
2017-06-08T18:25:21.106Z,40.80
2017-06-08T18:27:50.974Z,41.30
2017-06-08T18:30:20.666Z,41.30
2017-06-08T18:32:50.685Z,41.60
2017-06-08T18:35:20.966Z,42.00
2017-06-08T18:37:50.655Z,42.30
2017-06-08T18:40:21.541Z,42.60
2017-06-08T18:42:54.297Z,42.80
2017-06-08T18:45:24.289Z,43.50
2017-06-08T18:47:54.546Z,43.60
2017-06-08T18:50:24.254Z,43.50
2017-06-08T18:52:54.115Z,44.10
2017-06-08T18:55:23.827Z,43.50
2017-06-08T18:57:53.606Z,43.40
2017-06-08T19:00:23.312Z,43.40
2017-06-08T19:02:53.026Z,43.40
2017-06-08T19:05:22.722Z,43.40
2017-06-08T19:07:52.427Z,43.90
2017-06-08T19:10:22.116Z,44.20
2017-06-08T19:12:51.839Z,44.80
2017-06-08T19:15:21.542Z,45.20
2017-06-08T19:17:51.215Z,45.30
2017-06-08T19:20:20.929Z,45.80
2017-06-08T19:22:51.451Z,45.90
2017-06-08T19:25:21.141Z,46.30
2017-06-08T19:27:52.700Z,46.60
2017-06-08T19:30:24.905Z,47.10
2017-06-08T19:32:54.939Z,47.40
2017-06-08T19:35:24.994Z,47.40
2017-06-08T19:37:56.182Z,47.70
2017-06-08T19:40:25.871Z,48.00
2017-06-08T19:42:55.687Z,48.00
2017-06-08T19:45:26.515Z,50.80
2017-06-08T19:47:56.240Z,49.90
2017-06-08T19:50:26.017Z,50.50
2017-06-08T19:52:55.830Z,51.70
2017-06-08T19:55:25.499Z,51.50
2017-06-08T19:57:56.294Z,53.30
2017-06-08T20:00:25.970Z,53.40
2017-06-08T20:02:56.049Z,52.90
2017-06-08T20:05:25.774Z,54.20
2017-06-08T20:07:55.507Z,54.90
2017-06-08T20:10:25.206Z,55.20
2017-06-08T20:12:55.014Z,56.40
2017-06-08T20:15:25.166Z,57.20
2017-06-08T20:17:55.033Z,57.80
2017-06-08T20:20:24.788Z,58.00
2017-06-08T20:22:55.170Z,57.20
2017-06-08T20:25:24.853Z,56.60
2017-06-08T20:27:55.383Z,58.70
2017-06-08T20:30:25.078Z,58.70
2017-06-08T20:32:54.806Z,57.20
2017-06-08T20:35:24.513Z,58.30
2017-06-08T20:37:54.182Z,59.50
2017-06-08T20:40:24.088Z,59.40
2017-06-08T20:42:53.822Z,60.50
2017-06-08T20:45:23.494Z,61.00
2017-06-08T20:47:53.197Z,62.10
2017-06-08T20:50:22.879Z,62.00
2017-06-08T20:52:53.047Z,62.90
2017-06-08T20:55:24.651Z,62.70
2017-06-08T20:57:55.745Z,63.50
2017-06-08T21:00:25.462Z,63.80
2017-06-08T21:02:55.181Z,64.30
2017-06-08T21:05:24.850Z,64.70
2017-06-08T21:07:55.066Z,65.10
2017-06-08T21:10:24.758Z,65.50
2017-06-08T21:12:54.469Z,65.50
2017-06-08T21:15:24.241Z,65.70
2017-06-08T21:17:54.387Z,66.00
2017-06-08T21:20:24.590Z,65.40
2017-06-08T21:22:54.444Z,65.80
2017-06-08T21:25:24.527Z,65.70
2017-06-08T21:27:59.161Z,65.40
2017-06-08T21:30:30.031Z,65.50
2017-06-08T21:33:00.594Z,65.50
2017-06-08T21:35:30.628Z,65.20
2017-06-08T21:38:01.557Z,66.00
2017-06-08T21:40:31.408Z,66.30
2017-06-08T21:43:01.706Z,66.40
2017-06-08T21:45:32.897Z,66.50
2017-06-08T21:48:03.114Z,66.10
2017-06-08T21:50:34.385Z,67.40
2017-06-08T21:53:04.219Z,66.10
2017-06-08T21:55:33.950Z,67.20
2017-06-08T21:58:03.633Z,67.50
2017-06-08T22:00:33.354Z,68.00
2017-06-08T22:03:03.045Z,68.00
2017-06-08T22:05:32.739Z,68.00
2017-06-08T22:08:02.421Z,67.90
2017-06-08T22:10:32.118Z,67.90
2017-06-08T22:13:01.810Z,67.90
2017-06-08T22:15:31.490Z,67.90
2017-06-08T22:18:01.190Z,68.80
2017-06-08T22:20:31.039Z,69.10
2017-06-08T22:23:00.788Z,69.50
2017-06-08T22:25:31.514Z,69.70
2017-06-08T22:28:02.433Z,71.00
2017-06-08T22:30:33.589Z,71.10
2017-06-08T22:33:04.612Z,70.80
2017-06-08T22:35:34.650Z,70.80
2017-06-08T22:38:05.777Z,71.40
2017-06-08T22:40:36.924Z,71.30
2017-06-08T22:43:06.806Z,71.50
2017-06-08T22:45:37.060Z,71.40
2017-06-08T22:48:07.191Z,71.50
2017-06-08T22:50:37.310Z,71.10
2017-06-08T22:53:07.728Z,71.00
2017-06-08T22:55:37.557Z,71.60
2017-06-08T22:58:07.763Z,72.00
2017-06-08T23:00:38.049Z,72.40
2017-06-08T23:03:08.325Z,72.50
2017-06-08T23:05:38.473Z,73.20
2017-06-08T23:08:08.418Z,73.60
2017-06-08T23:10:38.477Z,73.70
2017-06-08T23:13:08.366Z,73.70
2017-06-08T23:15:38.364Z,73.40
2017-06-08T23:18:08.410Z,72.20
2017-06-08T23:20:38.566Z,72.50
2017-06-08T23:23:08.521Z,72.70
2017-06-08T23:25:38.414Z,72.20
2017-06-08T23:28:08.473Z,72.20
2017-06-08T23:30:38.709Z,71.50
2017-06-08T23:33:08.515Z,70.00
2017-06-08T23:35:38.657Z,68.50
2017-06-08T23:38:08.423Z,67.40
2017-06-08T23:40:38.474Z,68.40
2017-06-08T23:43:08.599Z,65.10
2017-06-08T23:45:38.798Z,64.30
2017-06-08T23:48:08.453Z,64.40
2017-06-08T23:50:38.134Z,66.20
2017-06-08T23:53:07.801Z,66.50
2017-06-08T23:55:37.539Z,67.60
2017-06-08T23:58:07.205Z,67.50
